Terminal Aerodrome Forecast
Issued by NWS

Home | Current Version | Previous Version | Text Only | Print | Product List | Glossary On
Versions: 1 2 3 4 5 6 7 8 9 10 11
000
FTUS43 KICT 130538
TAFHUT
TAF
KHUT 130538Z 1306/1406 21006KT P6SM SKC
     FM130800 26008KT P6SM SKC
     FM131200 31013KT P6SM SCT250
     FM131600 33019G27KT P6SM SCT250
     FM132300 35010KT P6SM BKN250=

USA.gov is the U.S. government's official web portal to all federal, state and local government web resources and services.